Peotone Weather

Nearby METAR Reports

 

KIGQ - Lansing, Illinois, USA
Distance from station: NE 19mi, 30km
Updated: Sun, 11-Apr-2021 10:15pm CDT
Overcast
Overcast
 Wind from SW
Wind: SW 3 mph , 6 km/h
Temperature: 48°F , 9°C
Dew Point: 45°F , 7°C
Humidity: 87%
Barometer: 29.57 inHg , 1001.4 hPa
Clouds: Overcast
Visibility: 10 miles , 16 km
Cloud details: Overcast 5000 ft
2021/04/12 03:15 KIGQ 120315Z AUTO 22003KT 10SM OVC050 09/07 A2957 RMK AO2 T00870071
KIKK - Kankakee, Illinois, USA
Distance from station: S 19mi, 30km
Updated: Sun, 11-Apr-2021 10:15pm CDT
Overcast
Overcast
 Wind from W
Wind: W 12 mph , 19 km/h
Temperature: 50°F , 10°C
Wind Chill: 45°F , 7°C
Dew Point: 50°F , 10°C
Humidity: 100%
Barometer: 29.59 inHg , 1002 hPa
Clouds: Overcast
Visibility: 10 miles , 16 km
Cloud details: Overcast 1200 ft
2021/04/12 03:15 KIKK 120315Z AUTO 27010KT 10SM OVC012 10/10 A2959 RMK AO2 T01000097 TSNO
 
KSJC - Joliet, Illinois, USA
Distance from station: WNW 24mi, 38km
Updated: Sun, 11-Apr-2021 9:53pm CDT
Mostly cloudy
Mostly cloudy
 Wind from NNW
Wind: NNW 14 mph , 22 km/h
Temperature: 55°F , 13°C
Dew Point: 45°F , 7°C
Humidity: 67%
Barometer: 29.84 inHg , 1010.5 hPa
Clouds: Mostly cloudy
Visibility: 10 miles , 16 km
Cloud details: Partly cloudy 8000 ft
Mostly cloudy 18000 ft
2021/04/12 02:53 KSJC 120253Z 34012KT 10SM SCT080 BKN180 13/07 A2984 RMK AO2 SLP104 T01280067 53006
KLOT - Romeoville, Illinois, USA
Distance from station: NW 26mi, 41km
Updated: Sun, 11-Apr-2021 10:15pm CDT
Drizzle, Overcast
Drizzle, Overcast
 Wind from W
Wind: W 12 mph , 19 km/h, Gust: 17 mph , 28 km/h
Temperature: 52°F , 11°C
Dew Point: 50°F , 10°C
Humidity: 94%
Barometer: 29.56 inHg , 1001 hPa
Summary: Drizzle
Clouds: Overcast
Visibility: 10 miles , 16 km
Cloud details: Mostly cloudy 900 ft
Overcast 1900 ft
2021/04/12 03:15 KLOT 120315Z AUTO 28010G15KT 10SM DZ BKN009 OVC019 11/10 A2956 RMK AO2 T01070101
 
KMDW - Midway Airport Chicago, Illinois, USA
Distance from station: N 31mi, 50km
Updated: Sun, 11-Apr-2021 9:53pm CDT
Overcast
Overcast
 Wind from S
Wind: S 3 mph , 6 km/h
Temperature: 48°F , 9°C
Dew Point: 41°F , 5°C
Humidity: 76%
Barometer: 29.54 inHg , 1000.3 hPa
Clouds: Overcast
Visibility: 10 miles , 16 km
Cloud details: Overcast 5000 ft
2021/04/12 02:53 KMDW 120253Z 18003KT 10SM OVC050 09/05 A2954 RMK AO2 SLP005 T00890050 51020
KC09 - Morris, Illinois, USA
Distance from station: W 34mi, 54km
Updated: Sun, 11-Apr-2021 10:15pm CDT
Overcast
Overcast
 Wind from WNW
Wind: WNW 13 mph , 20 km/h
Temperature: 52°F , 11°C
Dew Point: 50°F , 10°C
Humidity: 94%
Barometer: 29.57 inHg , 1001.4 hPa
Clouds: Overcast
Visibility: 10 miles , 16 km
Cloud details: Overcast 2500 ft
2021/04/12 03:15 KC09 120315Z AUTO 30011KT 10SM OVC025 11/10 A2957 RMK AO2 T01080097

Metar display script from Saratoga-Weather.org